Time;durP1;ratioP1;P1;durP2;ratioP2;P2;SDS_P1;SDS_P2;PMS_P1;PMS_P2;Temp;Humidity;BMP_temperature;BMP_pressure;BME280_temperature;BME280_humidity;BME280_pressure;Samples;Min_cycle;Max_cycle;Signal;HPM_P1;HPM_P2
2021/04/06 00:01:46;;;;;;;8.73;6.75;;;;;;;7.15;41.63;95027.20;1772437;80;21578;-51
2021/04/06 00:04:16;;;;;;;9.13;7.03;;;;;;;7.12;41.68;95001.21;1779725;80;21140;-52
2021/04/06 00:06:49;;;;;;;11.57;7.58;;;;;;;7.10;41.93;95008.23;1767916;80;21198;-51
2021/04/06 00:09:20;;;;;;;9.50;6.97;;;;;;;7.10;42.09;95014.68;1772855;80;21233;-51
2021/04/06 00:11:47;;;;;;;9.25;7.45;;;;;;;7.11;42.14;95015.04;1751407;80;22316;-51
2021/04/06 00:14:16;;;;;;;8.80;7.45;;;;;;;7.13;42.13;95020.88;1772024;79;21150;-51
2021/04/06 00:16:45;;;;;;;10.88;6.75;;;;;;;7.15;41.90;95019.47;1752230;80;21145;-52
2021/04/06 00:19:20;;;;;;;9.80;7.10;;;;;;;7.14;41.98;94998.02;1779091;79;21113;-51
2021/04/06 00:21:52;;;;;;;9.03;7.30;;;;;;;7.15;42.14;95015.16;1755533;80;21469;-52
2021/04/06 00:24:21;;;;;;;8.05;7.25;;;;;;;7.17;42.15;95011.13;1780960;79;21550;-55
2021/04/06 00:26:55;;;;;;;9.70;7.55;;;;;;;7.16;42.30;94992.27;1711160;83;21530;-52
2021/04/06 00:29:26;;;;;;;11.88;7.58;;;;;;;7.15;42.43;95006.57;1769576;80;21127;-52
2021/04/06 00:31:56;;;;;;;11.30;7.58;;;;;;;7.15;42.41;94992.38;1776625;80;21114;-51
2021/04/06 00:34:24;;;;;;;11.80;7.53;;;;;;;7.12;42.50;94984.90;1755353;80;21548;-51
2021/04/06 00:36:54;;;;;;;9.18;7.90;;;;;;;7.10;42.44;94992.76;1734752;82;21601;-51
2021/04/06 00:39:31;;;;;;;8.50;7.33;;;;;;;7.09;42.51;94997.59;1752172;80;21125;-52
2021/04/06 00:42:09;;;;;;;10.38;7.92;;;;;;;7.09;42.61;94993.72;1775950;80;21508;-51
2021/04/06 00:44:47;;;;;;;10.98;8.68;;;;;;;7.08;42.75;94986.92;1751334;80;21083;-51
2021/04/06 00:47:15;;;;;;;12.55;8.23;;;;;;;7.08;42.94;94993.84;1753043;80;21091;-51
2021/04/06 00:49:43;;;;;;;10.13;8.25;;;;;;;7.07;42.78;94988.33;1727631;80;21290;-51
2021/04/06 00:52:12;;;;;;;13.25;8.38;;;;;;;7.06;42.92;94988.00;1764762;80;21207;-50
2021/04/06 00:54:40;;;;;;;10.70;8.38;;;;;;;7.06;42.82;94991.88;1738943;80;21075;-51
2021/04/06 00:57:08;;;;;;;8.83;7.90;;;;;;;7.08;42.70;94986.92;1750698;80;21070;-50
2021/04/06 00:59:38;;;;;;;10.03;8.33;;;;;;;7.07;42.71;94981.43;1746856;81;21057;-50
2021/04/06 01:02:08;;;;;;;9.50;8.20;;;;;;;7.08;42.79;94977.89;1754064;80;21458;-51
2021/04/06 01:04:39;;;;;;;12.23;7.87;;;;;;;7.08;42.60;94977.08;1760973;80;21165;-51
2021/04/06 01:07:19;;;;;;;10.03;7.72;;;;;;;7.10;42.69;94955.84;1737593;81;21064;-50
2021/04/06 01:09:53;;;;;;;12.13;7.80;;;;;;;7.11;42.75;94959.59;1710310;82;21075;-50
2021/04/06 01:12:26;;;;;;;10.75;8.23;;;;;;;7.10;42.73;94935.21;1775579;80;21174;-51
2021/04/06 01:14:57;;;;;;;8.85;7.83;;;;;;;7.06;43.01;94951.42;1769546;80;21311;-52
2021/04/06 01:17:30;;;;;;;9.18;7.83;;;;;;;7.04;43.07;94950.73;1810028;79;21069;-52
2021/04/06 01:20:09;;;;;;;9.48;8.13;;;;;;;7.00;43.29;94934.67;1795164;79;21074;-51
2021/04/06 01:22:37;;;;;;;9.18;8.08;;;;;;;6.99;43.43;94936.12;1722962;82;21048;-50
2021/04/06 01:25:07;;;;;;;10.85;7.78;;;;;;;6.97;43.69;94928.51;1745008;80;21564;-51
2021/04/06 01:27:34;;;;;;;10.20;8.53;;;;;;;6.99;43.70;94929.19;1767552;81;21447;-50
2021/04/06 01:30:05;;;;;;;10.05;7.83;;;;;;;7.03;43.62;94931.03;1765014;81;21171;-51
2021/04/06 01:32:33;;;;;;;8.83;7.92;;;;;;;7.03;43.73;94931.03;1752319;80;21108;-51
2021/04/06 01:35:01;;;;;;;11.45;7.50;;;;;;;6.99;43.66;94943.38;1759413;81;21065;-50
2021/04/06 01:37:29;;;;;;;9.88;7.45;;;;;;;7.00;43.58;94951.44;1737213;82;21056;-50
2021/04/06 01:39:59;;;;;;;10.38;7.55;;;;;;;7.02;43.60;94956.95;1760015;81;21442;-50
2021/04/06 01:42:33;;;;;;;8.90;7.83;;;;;;;7.03;43.67;94943.93;1737278;81;21529;-50
2021/04/06 01:44:59;;;;;;;7.50;6.55;;;;;;;7.06;43.55;94950.61;1737198;81;21104;-50
2021/04/06 01:47:27;;;;;;;9.88;7.58;;;;;;;7.05;43.12;94938.64;1737743;81;21060;-51
2021/04/06 01:49:58;;;;;;;8.85;7.45;;;;;;;7.06;43.20;94944.16;1765941;80;21112;-51
2021/04/06 01:52:27;;;;;;;8.18;7.20;;;;;;;7.06;43.08;94937.72;1742123;82;21282;-51
2021/04/06 01:55:01;;;;;;;8.20;6.87;;;;;;;7.08;43.10;94943.08;1761819;79;21624;-51
2021/04/06 01:57:31;;;;;;;10.88;7.05;;;;;;;7.11;42.54;94953.63;1753092;80;21159;-51
2021/04/06 02:00:05;;;;;;;8.28;7.08;;;;;;;7.15;42.81;94957.56;1766818;81;21084;-50
2021/04/06 02:02:31;;;;;;;11.65;7.65;;;;;;;7.22;42.69;94964.32;1737857;80;21081;-51
2021/04/06 02:05:00;;;;;;;7.90;7.10;;;;;;;7.29;42.58;94986.10;1739420;81;21473;-51
2021/04/06 02:07:32;;;;;;;9.65;7.97;;;;;;;7.32;42.79;94991.02;1737123;82;21517;-50
2021/04/06 02:10:00;;;;;;;9.73;7.85;;;;;;;7.37;43.07;94991.45;1748968;81;21088;-51
2021/04/06 02:12:28;;;;;;;8.13;7.28;;;;;;;7.36;43.09;94998.83;1758852;80;21072;-51
2021/04/06 02:14:59;;;;;;;11.40;7.33;;;;;;;7.35;42.96;94993.31;1758574;81;21140;-51
2021/04/06 02:17:28;;;;;;;11.20;7.37;;;;;;;7.33;42.69;95009.40;1726795;82;22395;-50
2021/04/06 02:19:56;;;;;;;9.23;6.97;;;;;;;7.33;42.36;95005.05;1744392;81;21144;-50
2021/04/06 02:22:23;;;;;;;8.73;6.67;;;;;;;7.34;42.57;95007.98;1763990;80;21133;-51
2021/04/06 02:24:53;;;;;;;9.80;6.80;;;;;;;7.39;42.23;95005.51;1778471;80;21047;-51
2021/04/06 02:27:34;;;;;;;7.62;6.65;;;;;;;7.40;42.28;95004.55;1767733;80;21498;-50
2021/04/06 02:30:09;;;;;;;8.85;7.12;;;;;;;7.44;42.13;95011.10;1735558;82;21106;-52
2021/04/06 02:32:37;;;;;;;7.67;6.45;;;;;;;7.47;42.05;95020.69;1751564;81;21563;-50
2021/04/06 02:35:10;;;;;;;7.33;6.58;;;;;;;7.51;42.21;95022.05;1699408;82;21106;-51
2021/04/06 02:37:44;;;;;;;8.43;5.70;;;;;;;7.59;42.44;95016.74;1766996;80;21063;-50
2021/04/06 02:40:16;;;;;;;6.83;6.22;;;;;;;7.66;41.76;95016.56;1727589;82;21062;-52
2021/04/06 02:42:46;;;;;;;7.92;6.42;;;;;;;7.67;41.30;95015.63;1766793;80;22270;-51
2021/04/06 02:45:22;;;;;;;9.33;6.45;;;;;;;7.65;41.36;95006.72;1766691;80;21143;-51
2021/04/06 02:50:42;;;;;;;7.25;6.15;;;;;;;7.72;41.69;95012.19;1880841;76;27575;-51
2021/04/06 02:53:10;;;;;;;;;;;;;;;7.70;41.59;95013.59;1751086;80;21553;-51
2021/04/06 02:55:38;;;;;;;;;;;;;;;7.74;41.80;95017.55;1768945;80;21320;-51
2021/04/06 02:58:15;;;;;;;7.50;6.22;;;;;;;7.78;41.69;95010.38;1774369;80;20147;-51
2021/04/06 03:00:43;;;;;;;8.25;6.17;;;;;;;7.83;41.82;95020.30;1817233;78;21168;-51
2021/04/06 03:03:25;;;;;;;7.55;6.28;;;;;;;7.87;41.62;95017.81;1767467;80;21499;-52
2021/04/06 03:06:06;;;;;;;9.15;6.78;;;;;;;7.89;41.49;95021.91;1776234;80;21173;-51
2021/04/06 03:08:36;;;;;;;7.70;6.15;;;;;;;7.88;41.52;95017.69;1767351;81;21421;-51
2021/04/06 03:11:06;;;;;;;8.15;6.30;;;;;;;7.88;41.71;95033.66;1766094;81;21597;-51
2021/04/06 03:13:36;;;;;;;8.48;6.03;;;;;;;7.86;42.10;95035.08;1820781;77;21155;-50
2021/04/06 03:16:07;;;;;;;7.75;5.90;;;;;;;7.86;42.20;95032.95;1767726;77;21194;-50
2021/04/06 03:18:38;;;;;;;7.40;5.72;;;;;;;7.85;41.93;95037.79;1817232;77;21116;-50
2021/04/06 03:21:09;;;;;;;7.70;6.80;;;;;;;7.86;41.98;95037.66;1821663;77;21365;-50
2021/04/06 03:23:38;;;;;;;6.85;6.15;;;;;;;7.87;42.05;95037.18;1842312;77;21089;-50
2021/04/06 03:26:07;;;;;;;;;;;;;;;7.84;41.80;95038.73;1825346;77;21109;-50
2021/04/06 03:28:37;;;;;;;8.20;6.03;;;;;;;7.83;41.51;95036.63;1819059;77;20212;-50
2021/04/06 03:31:11;;;;;;;7.62;6.53;;;;;;;7.83;41.54;95039.20;1820548;77;21121;-51
2021/04/06 03:33:44;;;;;;;8.48;6.35;;;;;;;7.86;41.47;95038.12;1823036;77;21363;-52
2021/04/06 03:36:31;;;;;;;7.28;5.92;;;;;;;7.85;41.32;95042.47;1763823;80;21160;-51
2021/04/06 03:39:07;;;;;;;7.08;5.90;;;;;;;7.75;41.67;95041.63;1743406;80;21624;-51
2021/04/06 03:41:35;;;;;;;7.67;6.40;;;;;;;7.71;41.86;95042.81;1757441;80;21179;-51
2021/04/06 03:44:08;;;;;;;10.50;6.35;;;;;;;7.73;41.94;95050.78;1759636;80;21132;-51
2021/04/06 03:46:39;;;;;;;11.28;6.85;;;;;;;7.76;41.84;95047.11;1758964;80;21439;-52
2021/04/06 03:49:22;;;;;;;9.15;6.87;;;;;;;7.80;41.68;95038.66;1752385;80;21259;-54
2021/04/06 03:52:10;;;;;;;8.03;7.20;;;;;;;7.81;41.56;95052.73;1749419;80;21154;-53
2021/04/06 03:54:44;;;;;;;9.58;7.35;;;;;;;7.81;41.42;95055.31;1809989;77;21128;-52
2021/04/06 04:00:08;;;;;;;8.93;6.83;;;;;;;7.81;41.35;95057.06;1824512;77;21189;-51
2021/04/06 04:02:40;;;;;;;8.98;7.00;;;;;;;7.87;41.43;95061.72;1823374;78;21112;-52
2021/04/06 04:05:10;;;;;;;21.37;8.75;;;;;;;7.90;42.00;95052.42;1821249;77;21618;-51
2021/04/06 04:07:38;;;;;;;11.70;8.40;;;;;;;7.92;41.65;95061.66;1775172;79;21109;-50
2021/04/06 04:10:09;;;;;;;10.32;7.78;;;;;;;7.76;41.25;95066.95;1825390;77;21117;-50
2021/04/06 04:12:38;;;;;;;8.83;7.30;;;;;;;7.61;41.25;95069.05;1834958;77;21344;-50
2021/04/06 04:15:09;;;;;;;11.57;7.78;;;;;;;7.61;41.31;95067.28;1825627;77;21253;-50
2021/04/06 04:17:36;;;;;;;10.68;8.38;;;;;;;7.68;41.77;95067.58;1774731;80;21097;-51
2021/04/06 04:20:10;;;;;;;36.25;21.52;;;;;;;7.73;41.99;95072.73;1758234;80;21131;-51
2021/04/06 04:22:40;;;;;;;24.57;12.53;;;;;;;7.82;41.81;95076.30;1833239;77;21041;-51
2021/04/06 04:25:09;;;;;;;23.92;13.93;;;;;;;7.92;41.91;95076.34;1816434;77;22032;-52
2021/04/06 04:27:40;;;;;;;22.37;13.38;;;;;;;7.99;41.82;95076.16;1815809;78;21077;-52
2021/04/06 04:30:09;;;;;;;16.30;10.35;;;;;;;8.05;41.75;95083.40;1792230;77;21057;-52
2021/04/06 04:32:39;;;;;;;99.80;60.48;;;;;;;8.10;41.51;95088.19;1821116;77;21045;-52
2021/04/06 04:35:08;;;;;;;60.90;35.63;;;;;;;8.13;42.65;95091.80;1819554;77;21029;-53
2021/04/06 04:37:35;;;;;;;41.77;20.40;;;;;;;8.18;42.13;95097.39;1819314;77;21965;-52
2021/04/06 04:40:07;;;;;;;21.57;10.95;;;;;;;8.23;41.79;95104.77;1820219;77;21170;-53
2021/04/06 04:42:35;;;;;;;22.13;9.15;;;;;;;8.20;41.28;95103.24;1747129;80;21644;-53
2021/04/06 04:45:12;;;;;;;17.25;7.40;;;;;;;8.14;40.76;95111.53;1817052;77;21225;-54
2021/04/06 04:47:40;;;;;;;19.27;8.35;;;;;;;7.98;40.58;95102.15;1832471;77;21049;-51
2021/04/06 04:50:10;;;;;;;19.60;9.93;;;;;;;7.69;41.63;95106.67;1815919;78;22171;-52
2021/04/06 04:52:37;;;;;;;38.08;24.25;;;;;;;7.63;42.21;95108.45;1831326;77;21120;-51
2021/04/06 04:55:07;;;;;;;163.47;80.33;;;;;;;7.69;42.56;95111.83;1801556;78;21158;-52
2021/04/06 04:57:37;;;;;;;48.65;22.15;;;;;;;7.78;42.95;95118.83;1814606;79;21186;-52
2021/04/06 05:00:07;;;;;;;21.45;12.88;;;;;;;7.85;42.89;95128.17;1799354;78;21130;-53
2021/04/06 05:02:35;;;;;;;13.18;8.83;;;;;;;7.91;42.73;95147.01;1798933;79;21379;-51
2021/04/06 05:05:05;;;;;;;6.72;5.65;;;;;;;7.91;45.22;95159.47;1797064;79;21118;-51
2021/04/06 05:07:33;;;;;;;6.40;5.40;;;;;;;7.70;47.95;95163.34;1796024;79;21170;-51
2021/04/06 05:10:04;;;;;;;;;;;;;;;7.37;49.51;95170.78;1811875;79;21119;-51
2021/04/06 05:12:32;;;;;;;7.20;4.92;;;;;;;7.05;51.05;95169.47;1798753;79;20240;-50
2021/04/06 05:15:04;;;;;;;5.83;4.72;;;;;;;6.79;51.86;95183.48;1801267;78;21375;-52
2021/04/06 05:17:31;;;;;;;5.97;4.60;;;;;;;6.57;52.68;95205.39;1767704;80;21162;-51
2021/04/06 05:19:59;;;;;;;5.85;4.72;;;;;;;6.33;53.50;95210.20;1782834;79;21209;-51
2021/04/06 05:22:29;;;;;;;5.12;4.62;;;;;;;6.19;53.83;95218.14;1771576;79;21168;-52
2021/04/06 05:24:57;;;;;;;5.45;4.30;;;;;;;6.10;54.13;95223.48;1774816;80;21178;-52
2021/04/06 05:27:25;;;;;;;8.80;4.50;;;;;;;6.01;54.52;95243.03;1774114;80;21217;-51
2021/04/06 05:29:53;;;;;;;4.40;3.77;;;;;;;5.92;54.81;95246.27;1782199;80;21154;-52
2021/04/06 05:32:21;;;;;;;66.62;43.40;;;;;;;5.79;55.00;95245.50;1780060;79;21055;-52
2021/04/06 05:34:48;;;;;;;16.48;12.50;;;;;;;5.59;55.96;95258.09;1769798;80;21138;-53
2021/04/06 05:37:16;;;;;;;80.87;61.05;;;;;;;5.49;56.25;95265.64;1781820;80;21114;-52
2021/04/06 05:39:46;;;;;;;19.82;10.63;;;;;;;5.50;56.29;95272.88;1769199;80;21582;-54
2021/04/06 05:42:14;;;;;;;9.30;5.40;;;;;;;5.55;56.31;95274.66;1779483;80;21110;-54
2021/04/06 05:44:44;;;;;;;6.33;4.17;;;;;;;5.52;56.51;95279.55;1732589;80;21070;-53
2021/04/06 05:47:39;;;;;;;3.92;3.33;;;;;;;5.47;56.51;95291.92;1752269;80;21060;-54
2021/04/06 05:50:08;;;;;;;4.45;3.50;;;;;;;5.41;56.94;95298.80;1768451;81;21182;-53
2021/04/06 05:52:36;;;;;;;6.12;3.33;;;;;;;5.29;56.92;95312.04;1752130;81;22273;-54
2021/04/06 05:55:12;;;;;;;3.45;2.95;;;;;;;5.21;57.12;95319.47;1796041;77;21194;-53
2021/04/06 05:57:41;;;;;;;105.65;73.67;;;;;;;5.05;57.27;95323.58;1768716;79;21081;-51
2021/04/06 06:00:17;;;;;;;11.75;7.65;;;;;;;4.93;57.80;95330.39;1794741;78;21196;-54
2021/04/06 06:02:47;;;;;;;12.82;5.92;;;;;;;4.94;57.98;95334.59;1805859;78;21556;-56
2021/04/06 06:05:17;;;;;;;4.78;2.75;;;;;;;4.92;57.63;95335.16;1812342;78;21369;-52
2021/04/06 06:07:46;;;;;;;3.15;2.55;;;;;;;4.85;57.61;95336.52;1782237;79;21193;-57
2021/04/06 06:10:27;;;;;;;2.30;2.10;;;;;;;4.74;57.77;95344.94;1808938;77;21495;-52
2021/04/06 06:13:21;;;;;;;3.20;2.30;;;;;;;4.64;57.80;95352.91;1792362;78;21185;-53
2021/04/06 06:16:22;;;;;;;3.35;1.85;;;;;;;4.54;57.92;95365.55;1805776;77;21656;-54
2021/04/06 06:19:03;;;;;;;2.75;2.27;;;;;;;4.43;58.04;95360.28;1785273;78;21373;-52
2021/04/06 06:21:48;;;;;;;2.17;1.67;;;;;;;4.33;58.06;95361.34;1784144;78;21096;-52
2021/04/06 06:24:31;;;;;;;1.87;1.67;;;;;;;4.24;57.81;95376.90;1807391;77;21088;-52
2021/04/06 06:27:01;;;;;;;4.70;2.10;;;;;;;4.13;57.88;95375.92;1785885;79;21062;-51
2021/04/06 06:29:34;;;;;;;1.80;1.65;;;;;;;4.04;58.17;95380.73;1776563;80;21209;-51
2021/04/06 06:32:05;;;;;;;3.40;1.70;;;;;;;4.04;58.17;95380.73;1770562;80;21205;-52
2021/04/06 06:34:38;;;;;;;2.10;1.72;;;;;;;3.99;58.10;95387.09;1769158;79;21092;-52
2021/04/06 06:37:26;;;;;;;1.65;1.40;;;;;;;3.95;58.09;95395.91;1750879;82;21137;-52
2021/04/06 06:40:04;;;;;;;2.17;1.70;;;;;;;3.89;58.01;95397.58;1766309;78;26573;-52
2021/04/06 06:42:38;;;;;;;1.95;1.37;;;;;;;3.92;58.12;95405.91;1761542;78;21046;-57
2021/04/06 06:45:23;;;;;;;1.47;1.00;;;;;;;4.00;57.82;95411.84;1786469;78;21703;-54
2021/04/06 06:47:56;;;;;;;1.70;1.37;;;;;;;4.00;57.82;95411.84;1721423;82;21088;-51
2021/04/06 06:50:25;;;;;;;1.20;1.07;;;;;;;3.97;58.08;95425.68;1791888;79;21122;-53
2021/04/06 06:52:57;;;;;;;1.30;1.10;;;;;;;3.97;58.08;95425.68;1769557;79;21068;-51
2021/04/06 06:55:26;;;;;;;2.47;1.22;;;;;;;3.99;57.93;95419.17;1783183;80;21447;-51
2021/04/06 06:58:01;;;;;;;;;;;;;;;3.96;57.99;95429.63;1757652;80;22126;-52
2021/04/06 07:00:29;;;;;;;1.15;1.00;;;;;;;3.96;58.19;95436.05;1772701;79;20653;-54
2021/04/06 07:02:57;;;;;;;1.42;1.32;;;;;;;3.92;58.26;95438.45;1813705;79;21101;-53
2021/04/06 07:05:28;;;;;;;2.55;1.40;;;;;;;3.96;58.44;95437.33;1816031;79;21062;-53
2021/04/06 07:08:03;;;;;;;2.08;1.87;;;;;;;4.04;58.39;95438.48;1757429;80;21554;-52
2021/04/06 07:10:34;;;;;;;2.90;2.15;;;;;;;4.14;58.16;95432.78;1813831;79;22247;-53
2021/04/06 07:13:07;;;;;;;1.67;1.50;;;;;;;4.16;57.92;95436.06;1810619;78;21121;-52
2021/04/06 07:15:40;;;;;;;2.42;1.65;;;;;;;3.95;57.94;95444.21;1765453;79;21079;-53
2021/04/06 07:18:17;;;;;;;2.10;1.90;;;;;;;3.95;57.94;95444.21;1833936;77;21113;-52
2021/04/06 07:20:56;;;;;;;4.00;2.15;;;;;;;3.93;58.63;95447.34;1832302;78;21450;-52
2021/04/06 07:23:39;;;;;;;2.42;1.50;;;;;;;3.98;58.94;95449.59;1832107;78;21383;-52
2021/04/06 07:26:12;;;;;;;2.45;1.90;;;;;;;4.04;58.54;95447.47;1831905;78;21120;-52
2021/04/06 07:28:42;;;;;;;1.77;1.62;;;;;;;4.07;58.47;95451.59;1809043;78;21074;-52
2021/04/06 07:31:11;;;;;;;2.42;2.12;;;;;;;4.08;58.40;95459.67;1799230;79;21065;-53
2021/04/06 07:33:39;;;;;;;1.60;1.50;;;;;;;4.02;58.85;95449.78;1769498;78;21131;-52
2021/04/06 07:36:15;;;;;;;2.52;1.98;;;;;;;3.99;58.82;95457.67;1776573;78;21360;-52
2021/04/06 07:38:51;;;;;;;2.35;1.98;;;;;;;3.99;58.82;95457.67;1832150;78;21485;-52
2021/04/06 07:41:25;;;;;;;2.15;1.95;;;;;;;4.02;58.90;95463.89;1801709;78;21149;-52
2021/04/06 07:43:54;;;;;;;3.58;2.50;;;;;;;4.02;58.95;95462.14;1798835;79;21660;-53
2021/04/06 07:46:38;;;;;;;3.98;2.30;;;;;;;4.10;59.28;95453.97;1799335;79;21486;-52
2021/04/06 07:49:11;;;;;;;2.45;1.90;;;;;;;4.10;59.28;95453.97;1799431;79;21213;-53
2021/04/06 07:51:50;;;;;;;3.98;2.65;;;;;;;4.16;59.17;95447.61;1799460;79;21494;-52
2021/04/06 07:54:34;;;;;;;4.00;2.70;;;;;;;4.16;59.17;95447.61;1798254;79;21125;-51
2021/04/06 07:57:04;;;;;;;3.80;2.50;;;;;;;4.15;59.00;95462.67;1787993;80;21638;-52
2021/04/06 07:59:38;;;;;;;3.58;2.42;;;;;;;4.02;59.36;95446.74;1787654;80;21058;-51
2021/04/06 08:02:11;;;;;;;3.98;2.17;;;;;;;4.02;59.36;95446.74;1787996;80;22304;-52
2021/04/06 08:04:53;;;;;;;2.72;2.20;;;;;;;3.99;59.52;95440.98;1787871;80;21146;-51
2021/04/06 08:07:28;;;;;;;2.58;2.22;;;;;;;3.99;59.53;95449.50;1787971;80;21055;-51
2021/04/06 08:10:01;;;;;;;5.40;3.00;;;;;;;3.99;59.53;95449.50;1787612;80;21130;-51
2021/04/06 08:12:33;;;;;;;5.97;3.50;;;;;;;4.05;60.11;95450.41;1775134;80;21148;-51
2021/04/06 08:15:07;;;;;;;3.77;2.70;;;;;;;4.10;59.89;95453.16;1767664;78;21371;-51
2021/04/06 08:17:48;;;;;;;2.62;2.20;;;;;;;4.10;59.81;95456.54;1787201;79;21297;-52
2021/04/06 08:20:32;;;;;;;1.95;1.77;;;;;;;4.07;59.86;95449.03;1765430;80;21636;-52
2021/04/06 08:23:06;;;;;;;3.92;3.10;;;;;;;4.09;59.98;95436.91;1765249;81;21531;-52
2021/04/06 08:25:39;;;;;;;4.42;2.70;;;;;;;4.10;59.98;95437.75;1766508;81;21059;-52
2021/04/06 08:28:37;;;;;;;4.10;2.67;;;;;;;4.15;59.50;95447.27;1765133;80;22349;-52
2021/04/06 08:31:16;;;;;;;3.47;2.40;;;;;;;4.15;59.48;95458.83;1750231;81;21079;-52
2021/04/06 08:33:44;;;;;;;2.98;2.40;;;;;;;4.17;59.48;95450.55;1793660;78;21049;-52
2021/04/06 08:36:23;;;;;;;3.50;2.30;;;;;;;4.15;59.37;95457.07;1823630;78;21064;-52
2021/04/06 08:38:53;;;;;;;2.77;2.20;;;;;;;4.15;59.24;95462.20;1820200;78;21121;-52
2021/04/06 08:41:29;;;;;;;2.22;1.98;;;;;;;4.18;59.12;95454.31;1820306;78;21372;-51
2021/04/06 08:44:00;;;;;;;1.82;1.72;;;;;;;4.13;59.03;95457.64;1819626;78;21141;-51
2021/04/06 08:46:49;;;;;;;3.45;2.55;;;;;;;3.97;59.32;95462.08;1820162;78;21113;-52
2021/04/06 08:49:25;;;;;;;4.03;2.00;;;;;;;3.90;59.54;95463.36;1816313;78;21085;-51
2021/04/06 08:52:00;;;;;;;5.53;2.35;;;;;;;3.85;59.35;95456.79;1820265;78;21477;-51
2021/04/06 08:54:31;;;;;;;3.72;2.20;;;;;;;3.87;59.14;95451.56;1783182;78;21201;-52
2021/04/06 08:57:05;;;;;;;3.37;2.10;;;;;;;3.87;59.14;95451.56;1749718;81;21120;-52
2021/04/06 08:59:39;;;;;;;3.75;2.10;;;;;;;3.87;59.08;95449.81;1757656;78;21140;-52
2021/04/06 09:02:18;;;;;;;3.20;2.50;;;;;;;3.87;59.08;95449.81;1768165;80;21143;-52
2021/04/06 09:04:49;;;;;;;2.85;2.00;;;;;;;3.93;58.91;95438.80;1764578;81;21148;-51
2021/04/06 09:07:25;;;;;;;2.67;2.40;;;;;;;4.01;59.05;95448.13;1786856;80;21353;-51
2021/04/06 09:09:54;;;;;;;2.62;2.25;;;;;;;4.07;58.97;95443.08;1789426;80;21120;-51
2021/04/06 09:12:35;;;;;;;2.33;2.05;;;;;;;4.12;58.85;95440.58;1769959;81;21081;-52
2021/04/06 09:15:08;;;;;;;2.05;1.95;;;;;;;4.20;58.46;95433.68;1758400;80;21083;-52
2021/04/06 09:17:37;;;;;;;2.85;2.20;;;;;;;4.26;58.36;95433.30;1758463;81;21162;-52
2021/04/06 09:20:14;;;;;;;2.52;2.10;;;;;;;4.36;58.33;95416.84;1758271;80;21372;-52
2021/04/06 09:22:47;;;;;;;2.08;1.87;;;;;;;4.45;58.64;95429.53;1758377;81;21062;-52
2021/04/06 09:25:23;;;;;;;2.50;2.12;;;;;;;4.54;58.28;95433.62;1758405;81;21093;-50
2021/04/06 09:27:57;;;;;;;2.70;2.35;;;;;;;4.63;57.69;95427.52;1738207;80;21056;-51
2021/04/06 09:30:32;;;;;;;2.60;2.40;;;;;;;4.59;57.36;95435.42;1728175;83;21091;-52
2021/04/06 09:33:09;;;;;;;2.40;2.20;;;;;;;4.55;57.42;95426.25;1727642;83;21340;-51
2021/04/06 09:35:36;;;;;;;3.77;2.20;;;;;;;4.55;57.11;95428.82;1728253;83;21596;-51
2021/04/06 09:38:05;;;;;;;2.52;2.33;;;;;;;4.55;57.23;95423.69;1791563;79;21057;-51
2021/04/06 09:40:38;;;;;;;4.20;2.75;;;;;;;4.61;56.94;95423.29;1801819;79;21053;-51
2021/04/06 09:43:06;;;;;;;4.53;3.67;;;;;;;4.64;57.31;95419.71;1801141;79;21161;-51
2021/04/06 09:45:34;;;;;;;4.87;4.20;;;;;;;4.64;57.31;95419.71;1805651;79;21393;-52
2021/04/06 09:48:04;;;;;;;4.87;4.40;;;;;;;4.65;57.74;95423.09;1801646;79;26714;-52
2021/04/06 09:50:31;;;;;;;4.17;3.72;;;;;;;4.71;57.69;95421.41;1801778;79;26044;-52
2021/04/06 09:52:59;;;;;;;2.85;2.58;;;;;;;4.74;57.16;95416.89;1801534;79;21112;-52
2021/04/06 09:55:29;;;;;;;3.60;2.47;;;;;;;4.77;56.91;95415.41;1807186;78;21117;-53
2021/04/06 09:58:02;;;;;;;3.52;2.50;;;;;;;4.81;56.44;95411.35;1802602;79;21366;-52
2021/04/06 10:00:32;;;;;;;2.95;2.42;;;;;;;4.80;56.41;95407.94;1815993;79;21118;-51
2021/04/06 10:03:06;;;;;;;2.77;2.42;;;;;;;4.83;56.25;95406.45;1782836;80;21118;-52
2021/04/06 10:05:36;;;;;;;2.62;2.22;;;;;;;4.83;56.12;95400.03;1798721;79;21098;-53
2021/04/06 10:08:04;;;;;;;2.58;2.37;;;;;;;4.85;56.27;95396.91;1780323;80;21056;-52
2021/04/06 10:10:34;;;;;;;3.27;2.55;;;;;;;4.93;55.98;95395.94;1782204;80;21373;-55
2021/04/06 10:13:04;;;;;;;2.00;1.87;;;;;;;5.04;56.03;95392.63;1770272;78;22206;-53
2021/04/06 10:15:32;;;;;;;2.35;2.15;;;;;;;5.14;55.50;95387.69;1786628;79;21066;-52
2021/04/06 10:18:12;;;;;;;2.17;1.98;;;;;;;5.19;55.18;95391.23;1783902;80;21062;-52
2021/04/06 10:20:54;;;;;;;2.55;2.12;;;;;;;5.24;55.10;95386.59;1783951;80;21149;-52
2021/04/06 10:23:34;;;;;;;2.37;2.10;;;;;;;5.32;55.64;95375.31;1783950;80;21459;-51
2021/04/06 10:26:04;;;;;;;2.70;2.50;;;;;;;5.39;55.47;95375.23;1789982;79;21070;-52
2021/04/06 10:28:32;;;;;;;2.15;1.95;;;;;;;5.35;55.58;95371.25;1815232;79;21090;-52
2021/04/06 10:31:03;;;;;;;2.60;2.40;;;;;;;5.31;55.58;95370.65;1816119;79;21177;-52
2021/04/06 10:33:35;;;;;;;3.30;2.67;;;;;;;5.31;55.93;95373.66;1816060;78;21070;-52
2021/04/06 10:36:18;;;;;;;3.30;2.85;;;;;;;5.30;56.08;95370.75;1816090;78;21366;-52
2021/04/06 10:38:47;;;;;;;2.62;2.42;;;;;;;5.26;56.24;95363.72;1801796;79;21146;-52
2021/04/06 10:41:17;;;;;;;4.12;2.27;;;;;;;5.31;56.57;95360.80;1785468;79;21071;-53
2021/04/06 10:43:50;;;;;;;2.30;2.10;;;;;;;5.30;55.60;95361.75;1801732;79;21158;-52
2021/04/06 10:46:24;;;;;;;2.45;2.25;;;;;;;5.26;55.65;95362.88;1783947;80;21165;-53
2021/04/06 10:49:05;;;;;;;2.40;2.20;;;;;;;5.30;55.90;95362.56;1783499;79;21439;-52
2021/04/06 10:51:34;;;;;;;3.08;2.40;;;;;;;5.37;55.22;95361.67;1815187;78;21042;-52
2021/04/06 10:54:11;;;;;;;4.10;2.90;;;;;;;5.41;55.12;95367.42;1816002;78;21043;-52
2021/04/06 10:56:51;;;;;;;3.20;2.42;;;;;;;5.42;55.42;95364.74;1809188;79;21495;-52
2021/04/06 10:59:31;;;;;;;2.80;2.52;;;;;;;5.37;55.47;95369.39;1784506;79;21134;-52
2021/04/06 11:02:01;;;;;;;3.47;2.42;;;;;;;5.28;55.29;95372.58;1774010;80;21176;-52
2021/04/06 11:04:33;;;;;;;5.70;2.95;;;;;;;5.14;55.12;95372.26;1774011;80;21587;-52
2021/04/06 11:07:06;;;;;;;4.50;3.10;;;;;;;5.06;55.20;95368.10;1772314;80;21479;-51
2021/04/06 11:09:46;;;;;;;3.00;2.70;;;;;;;5.00;55.44;95364.21;1774020;80;21479;-51
2021/04/06 11:12:15;;;;;;;3.42;3.12;;;;;;;4.96;55.60;95364.05;1778310;79;21134;-52
2021/04/06 11:18:16;;;;;;;3.72;2.90;;;;;;;4.98;55.47;95357.05;1650057;87;21530;-52
2021/04/06 11:21:13;;;;;;;6.15;4.28;;;;;;;5.05;55.54;95361.30;1626838;87;21134;-52
2021/04/06 11:23:56;;;;;;;3.08;2.72;;;;;;;5.00;55.14;95360.80;1626559;87;21078;-51
2021/04/06 11:26:44;;;;;;;3.25;2.95;;;;;;;4.94;55.02;95349.20;1649835;85;21127;-51
2021/04/06 11:29:35;;;;;;;3.27;2.60;;;;;;;4.94;55.55;95349.20;1650032;85;21466;-52
2021/04/06 11:32:24;;;;;;;3.47;2.65;;;;;;;5.07;55.64;95347.91;1647938;87;21154;-51
2021/04/06 11:35:10;;;;;;;4.12;2.67;;;;;;;5.24;55.17;95339.83;1650291;85;21079;-51
2021/04/06 11:38:00;;;;;;;4.17;3.05;;;;;;;5.39;55.41;95337.13;1650280;85;21197;-52
2021/04/06 11:40:47;;;;;;;2.42;2.22;;;;;;;5.57;55.16;95336.30;1650499;85;21091;-52
2021/04/06 11:43:27;;;;;;;3.12;2.47;;;;;;;5.68;54.92;95328.65;1628834;87;21327;-51
2021/04/06 11:46:23;;;;;;;4.08;2.85;;;;;;;5.87;54.93;95326.41;1650315;87;21658;-53
2021/04/06 11:49:23;;;;;;;2.55;2.35;;;;;;;6.12;54.95;95322.08;1631230;87;21110;-52
2021/04/06 11:52:03;;;;;;;3.40;2.62;;;;;;;6.36;54.96;95325.88;1650851;87;21117;-51
2021/04/06 11:54:50;;;;;;;3.33;2.58;;;;;;;6.56;54.52;95323.58;1650784;87;21510;-51
2021/04/06 11:58:06;;;;;;;3.00;2.60;;;;;;;6.69;53.80;95315.75;1649374;87;21188;-52
2021/04/06 12:00:47;;;;;;;2.42;2.22;;;;;;;6.72;53.61;95310.38;1597930;88;21194;-52
2021/04/06 12:03:26;;;;;;;3.02;2.37;;;;;;;6.69;52.71;95305.44;1615323;87;21105;-52
2021/04/06 12:06:05;;;;;;;2.83;2.50;;;;;;;6.78;52.28;95299.60;1649953;87;21182;-53
2021/04/06 12:08:49;;;;;;;3.45;2.60;;;;;;;6.83;52.30;95300.55;1623758;87;21169;-52
2021/04/06 12:12:07;;;;;;;2.77;2.52;;;;;;;6.77;51.86;95297.47;1623363;88;21627;-52
2021/04/06 12:14:52;;;;;;;2.22;2.05;;;;;;;6.74;52.09;95291.73;1617260;87;21206;-52
2021/04/06 12:17:55;;;;;;;2.95;2.50;;;;;;;6.80;51.44;95291.27;1588807;89;21169;-52
2021/04/06 12:20:41;;;;;;;2.55;2.27;;;;;;;6.88;51.04;95286.35;1616753;87;21182;-52
2021/04/06 12:23:32;;;;;;;2.72;2.52;;;;;;;6.91;51.08;95287.41;1595289;90;21109;-52